Time;durP1;ratioP1;P1;durP2;ratioP2;P2;SDS_P1;SDS_P2;PMS_P1;PMS_P2;Temp;Humidity;BMP_temperature;BMP_pressure;BME280_temperature;BME280_humidity;BME280_pressure;Samples;Min_cycle;Max_cycle;Signal;HPM_P1;HPM_P2
2020/12/19 00:02:09;;;;;;;12.88;9.50;;;5.50;77.60;;;;;;4993629;28;20093;-82
2020/12/19 00:04:35;;;;;;;13.13;8.93;;;5.60;77.60;;;;;;4975756;28;20502;-83
2020/12/19 00:07:01;;;;;;;13.48;8.68;;;5.60;77.60;;;;;;4993393;28;20105;-84
2020/12/19 00:09:27;;;;;;;14.13;8.75;;;5.60;77.70;;;;;;4975952;28;20049;-84
2020/12/19 00:11:53;;;;;;;13.15;9.00;;;5.50;77.50;;;;;;4993291;28;20050;-84
2020/12/19 00:14:20;;;;;;;11.82;8.63;;;5.50;77.50;;;;;;4993266;28;20104;-84
2020/12/19 00:16:46;;;;;;;12.52;8.55;;;5.50;77.50;;;;;;5000886;28;20030;-82
2020/12/19 00:19:11;;;;;;;12.35;8.93;;;5.50;77.40;;;;;;4981352;28;20041;-83
2020/12/19 00:21:38;;;;;;;12.57;8.32;;;5.50;77.40;;;;;;4992919;28;20050;-81
2020/12/19 00:24:05;;;;;;;11.75;8.38;;;5.50;77.30;;;;;;4993667;28;20042;-81
2020/12/19 00:26:42;;;;;;;11.52;7.85;;;5.60;77.40;;;;;;4975989;28;20042;-82
2020/12/19 00:29:12;;;;;;;13.05;8.95;;;5.60;77.50;;;;;;4992907;28;20454;-82
2020/12/19 00:31:38;;;;;;;11.52;8.30;;;5.50;77.40;;;;;;4977643;28;20066;-82
2020/12/19 00:34:06;;;;;;;12.20;8.40;;;5.50;77.50;;;;;;4996771;28;20058;-83
2020/12/19 00:36:32;;;;;;;13.82;8.80;;;5.40;77.50;;;;;;4979519;28;20419;-81
2020/12/19 00:38:58;;;;;;;11.13;7.82;;;5.40;77.50;;;;;;4963130;28;20129;-80
2020/12/19 00:41:25;;;;;;;13.25;9.00;;;5.40;77.70;;;;;;4979704;28;20117;-81
2020/12/19 00:43:52;;;;;;;11.60;8.05;;;5.40;77.70;;;;;;4996760;28;20043;-83
2020/12/19 00:46:19;;;;;;;13.23;8.13;;;5.40;77.60;;;;;;4997503;28;20215;-82
2020/12/19 00:48:45;;;;;;;11.20;7.78;;;5.40;77.50;;;;;;4996886;28;20133;-85
2020/12/19 00:51:22;;;;;;;12.00;7.95;;;5.50;77.50;;;;;;4996480;28;20093;-86
2020/12/19 00:53:49;;;;;;;9.27;6.70;;;5.50;77.60;;;;;;4979405;28;20502;-86
2020/12/19 00:56:23;;;;;;;12.70;8.02;;;5.40;77.70;;;;;;4979185;28;20049;-84
2020/12/19 00:58:51;;;;;;;10.05;6.97;;;5.40;77.90;;;;;;4996736;28;20101;-86
2020/12/19 01:01:19;;;;;;;8.57;6.82;;;5.30;77.90;;;;;;4996984;28;20462;-86
2020/12/19 01:03:45;;;;;;;11.13;7.10;;;5.40;77.90;;;;;;4997466;28;20042;-85
2020/12/19 01:06:29;;;;;;;9.52;6.95;;;5.40;77.90;;;;;;4998441;28;20042;-88
2020/12/19 01:09:00;;;;;;;10.23;7.35;;;5.30;78.40;;;;;;4985040;28;20038;-85
2020/12/19 01:11:28;;;;;;;11.15;7.30;;;5.40;78.00;;;;;;4998847;28;20129;-82
2020/12/19 01:13:55;;;;;;;9.25;6.60;;;5.30;78.00;;;;;;4997792;28;20411;-84
2020/12/19 01:16:23;;;;;;;10.35;7.47;;;5.30;78.10;;;;;;4996987;28;20049;-85
2020/12/19 01:18:50;;;;;;;9.63;7.10;;;5.30;78.10;;;;;;4979622;28;20038;-83
2020/12/19 01:21:18;;;;;;;10.82;7.25;;;5.30;78.10;;;;;;4996749;28;20048;-84
2020/12/19 01:23:48;;;;;;;9.68;6.50;;;5.30;78.10;;;;;;4996692;28;20038;-84
2020/12/19 01:26:15;;;;;;;10.93;7.03;;;5.30;78.20;;;;;;4996349;28;20125;-84
2020/12/19 01:28:41;;;;;;;10.48;7.10;;;5.30;78.20;;;;;;4995930;28;20198;-82
2020/12/19 01:31:12;;;;;;;11.63;7.47;;;5.30;78.20;;;;;;5002191;28;20038;-83
2020/12/19 01:33:39;;;;;;;8.20;5.97;;;5.30;78.10;;;;;;5000622;28;20482;-83
2020/12/19 01:36:17;;;;;;;9.75;6.47;;;5.30;78.10;;;;;;4996097;28;20452;-82
2020/12/19 01:38:43;;;;;;;9.85;6.47;;;5.20;78.30;;;;;;4995894;28;20101;-81
2020/12/19 01:41:09;;;;;;;8.75;6.10;;;5.30;78.20;;;;;;4996169;28;20516;-81
2020/12/19 01:43:55;;;;;;;10.68;7.18;;;5.30;78.30;;;;;;4996612;28;20049;-83
2020/12/19 01:46:42;;;;;;;10.27;6.57;;;5.30;78.40;;;;;;4996630;28;20375;-84
2020/12/19 01:49:08;;;;;;;10.35;7.03;;;5.20;78.30;;;;;;4996424;28;20050;-83
2020/12/19 01:51:36;;;;;;;9.43;6.60;;;5.20;78.40;;;;;;4996673;28;20129;-84
2020/12/19 01:54:03;;;;;;;9.52;6.30;;;5.30;78.50;;;;;;4979479;28;20030;-83
2020/12/19 01:56:38;;;;;;;10.48;6.88;;;5.30;78.40;;;;;;4996441;28;20065;-83
2020/12/19 01:59:05;;;;;;;8.70;6.55;;;5.30;78.30;;;;;;4997798;28;20049;-82
2020/12/19 02:01:32;;;;;;;10.57;7.18;;;5.20;78.30;;;;;;4998057;28;20121;-82
2020/12/19 02:03:58;;;;;;;9.90;7.00;;;5.30;78.40;;;;;;4981021;28;20034;-82
2020/12/19 02:06:27;;;;;;;10.30;7.00;;;5.30;78.40;;;;;;5007517;28;20046;-81
2020/12/19 02:08:54;;;;;;;8.95;6.55;;;5.30;78.50;;;;;;5016057;28;20030;-81
2020/12/19 02:11:22;;;;;;;8.70;6.75;;;5.30;78.60;;;;;;4981769;28;20034;-81
2020/12/19 02:13:48;;;;;;;9.73;6.53;;;5.20;78.60;;;;;;5013777;28;20030;-80
2020/12/19 02:16:18;;;;;;;10.20;7.28;;;5.30;78.60;;;;;;5015032;28;20045;-81
2020/12/19 02:18:44;;;;;;;9.93;6.65;;;5.20;78.40;;;;;;5015647;28;20046;-81
2020/12/19 02:21:10;;;;;;;8.68;6.50;;;5.20;78.30;;;;;;5015288;28;20068;-80
2020/12/19 02:23:36;;;;;;;8.98;6.43;;;5.20;78.40;;;;;;5014052;28;20042;-80
2020/12/19 02:26:02;;;;;;;8.48;5.93;;;5.20;78.40;;;;;;4990797;28;20042;-82
2020/12/19 02:28:28;;;;;;;8.60;6.05;;;5.20;78.50;;;;;;5001592;28;20034;-81
2020/12/19 02:30:54;;;;;;;8.55;6.80;;;5.20;78.60;;;;;;4997297;28;20143;-81
2020/12/19 02:33:19;;;;;;;10.63;6.90;;;5.20;78.60;;;;;;4995188;28;20074;-81
2020/12/19 02:35:45;;;;;;;8.38;6.65;;;5.20;78.60;;;;;;4978127;28;20381;-81
2020/12/19 02:38:11;;;;;;;9.73;6.53;;;5.20;78.50;;;;;;4995340;28;20034;-80
2020/12/19 02:40:38;;;;;;;10.93;6.88;;;5.20;78.50;;;;;;4994705;28;20089;-81
2020/12/19 02:43:04;;;;;;;7.97;5.93;;;5.20;78.50;;;;;;4995546;28;20059;-83
2020/12/19 02:45:30;;;;;;;7.95;5.75;;;5.20;78.50;;;;;;5001630;28;20069;-84
2020/12/19 02:47:56;;;;;;;7.85;6.00;;;5.10;78.50;;;;;;4997128;28;20097;-85
2020/12/19 02:50:22;;;;;;;9.52;6.60;;;5.20;78.50;;;;;;4995320;28;20382;-86
2020/12/19 02:52:48;;;;;;;9.48;5.80;;;5.20;78.50;;;;;;4995046;28;20129;-86
2020/12/19 02:55:13;;;;;;;8.73;5.70;;;5.20;78.50;;;;;;4994647;28;20505;-86
2020/12/19 02:57:39;;;;;;;7.88;5.80;;;5.20;78.50;;;;;;4995307;28;20038;-85
2020/12/19 03:00:06;;;;;;;8.00;6.30;;;5.10;78.50;;;;;;4994269;28;20053;-83
2020/12/19 03:02:32;;;;;;;7.65;5.82;;;5.10;78.50;;;;;;4994319;28;20098;-83
2020/12/19 03:04:58;;;;;;;7.82;5.80;;;5.10;78.50;;;;;;4994109;28;20046;-83
2020/12/19 03:07:24;;;;;;;8.50;6.28;;;5.10;78.50;;;;;;4994985;28;20414;-82
2020/12/19 03:09:50;;;;;;;8.13;5.32;;;5.10;78.60;;;;;;4994560;28;20490;-81
2020/12/19 03:12:15;;;;;;;10.07;6.13;;;5.10;78.60;;;;;;4994495;28;20042;-83
2020/12/19 03:14:41;;;;;;;7.75;5.30;;;5.10;78.60;;;;;;4976592;28;20449;-83
2020/12/19 03:17:07;;;;;;;7.38;5.70;;;5.10;78.70;;;;;;4994326;28;20030;-84
2020/12/19 03:19:34;;;;;;;8.98;5.75;;;5.10;78.70;;;;;;4994589;28;20383;-85
2020/12/19 03:22:00;;;;;;;6.60;5.60;;;5.20;78.70;;;;;;4994330;28;20044;-84
2020/12/19 03:24:25;;;;;;;7.55;5.63;;;5.10;78.60;;;;;;4993871;28;20129;-85
2020/12/19 03:26:51;;;;;;;7.28;6.07;;;5.10;78.80;;;;;;4994163;28;20085;-84
2020/12/19 03:29:17;;;;;;;6.88;5.75;;;5.10;78.90;;;;;;4976534;28;20485;-84
2020/12/19 03:31:43;;;;;;;7.85;5.75;;;5.10;79.00;;;;;;4976272;28;20035;-80
2020/12/19 03:34:09;;;;;;;7.75;5.88;;;5.10;79.00;;;;;;4994220;28;20066;-80
2020/12/19 03:36:35;;;;;;;5.70;5.10;;;5.10;78.90;;;;;;4993595;28;20038;-80
2020/12/19 03:39:03;;;;;;;7.63;5.40;;;5.10;79.00;;;;;;4993697;28;20046;-80
2020/12/19 03:41:29;;;;;;;7.65;5.80;;;5.10;78.80;;;;;;4976178;28;20089;-81
2020/12/19 03:43:55;;;;;;;5.68;5.00;;;5.10;78.70;;;;;;4976176;28;20678;-81
2020/12/19 03:46:21;;;;;;;6.95;5.22;;;5.10;78.70;;;;;;4993532;28;20037;-85
2020/12/19 03:48:47;;;;;;;7.35;5.38;;;5.20;78.80;;;;;;4959692;28;20031;-80
2020/12/19 03:51:12;;;;;;;7.25;5.85;;;5.10;78.90;;;;;;4993438;28;20038;-79
2020/12/19 03:53:38;;;;;;;5.55;4.95;;;5.10;79.00;;;;;;4975713;28;20130;-81
2020/12/19 03:56:04;;;;;;;5.90;5.30;;;5.10;78.80;;;;;;4993172;28;20414;-81
2020/12/19 03:58:30;;;;;;;7.50;5.60;;;5.10;78.90;;;;;;4976357;28;20160;-81
2020/12/19 04:00:56;;;;;;;8.13;5.60;;;5.10;78.80;;;;;;5001585;28;20089;-81
2020/12/19 04:03:22;;;;;;;6.50;5.38;;;5.10;78.70;;;;;;4993267;28;20026;-81
2020/12/19 04:05:48;;;;;;;6.72;5.55;;;5.10;78.70;;;;;;4975706;28;20046;-82
2020/12/19 04:08:14;;;;;;;8.48;5.80;;;5.10;78.70;;;;;;4993425;28;20045;-83
2020/12/19 04:10:40;;;;;;;6.75;4.95;;;5.10;79.40;;;;;;4993126;28;20035;-80
2020/12/19 04:13:06;;;;;;;6.82;5.80;;;5.10;78.80;;;;;;4975991;28;20085;-81
2020/12/19 04:15:32;;;;;;;6.07;5.00;;;5.10;78.80;;;;;;4975872;28;20560;-82
2020/12/19 04:17:57;;;;;;;10.75;5.60;;;5.10;78.80;;;;;;4993448;28;20074;-82
2020/12/19 04:20:23;;;;;;;7.43;5.45;;;5.10;78.80;;;;;;4993381;28;20042;-82
2020/12/19 04:22:49;;;;;;;8.68;5.72;;;5.00;78.90;;;;;;4976146;28;20489;-81
2020/12/19 04:25:15;;;;;;;6.60;5.50;;;5.10;79.00;;;;;;4993101;28;20031;-81
2020/12/19 04:27:41;;;;;;;7.40;5.75;;;5.10;78.90;;;;;;4993056;28;20038;-80
2020/12/19 04:30:09;;;;;;;6.57;5.03;;;5.10;78.90;;;;;;4993127;28;20042;-82
2020/12/19 04:32:37;;;;;;;6.47;5.50;;;5.00;78.80;;;;;;4992984;28;20054;-82
2020/12/19 04:35:04;;;;;;;6.07;5.30;;;5.10;78.90;;;;;;4995799;28;20038;-82
2020/12/19 04:37:30;;;;;;;6.50;5.50;;;5.10;79.00;;;;;;4975856;28;20044;-81
2020/12/19 04:39:56;;;;;;;6.60;5.90;;;5.00;78.90;;;;;;4992965;28;20132;-80
2020/12/19 04:42:23;;;;;;;6.15;5.55;;;5.00;79.00;;;;;;4993302;28;20042;-83
2020/12/19 04:44:50;;;;;;;6.45;5.70;;;5.00;79.00;;;;;;4975770;28;20137;-82
2020/12/19 04:47:16;;;;;;;7.05;6.15;;;5.00;79.00;;;;;;4992910;28;20046;-81
2020/12/19 04:49:43;;;;;;;7.40;5.38;;;5.00;78.90;;;;;;4992878;28;20513;-82
2020/12/19 04:52:10;;;;;;;7.20;5.97;;;5.00;79.10;;;;;;4959414;28;20402;-81
2020/12/19 04:54:37;;;;;;;7.15;5.75;;;5.00;79.20;;;;;;4993095;28;20045;-81
2020/12/19 04:57:03;;;;;;;10.88;6.45;;;5.00;79.10;;;;;;4992653;28;20121;-85
2020/12/19 04:59:30;;;;;;;10.32;6.00;;;5.00;79.20;;;;;;4992998;28;20512;-85
2020/12/19 05:01:58;;;;;;;9.07;6.28;;;4.90;79.20;;;;;;4959387;28;20042;-86
2020/12/19 05:04:27;;;;;;;7.03;5.78;;;5.00;79.30;;;;;;4975622;28;20038;-86
2020/12/19 05:06:57;;;;;;;7.15;6.03;;;5.00;79.20;;;;;;4993414;28;20541;-85
2020/12/19 05:09:23;;;;;;;7.70;6.13;;;5.00;79.20;;;;;;4993761;28;20034;-84
2020/12/19 05:11:49;;;;;;;7.30;6.43;;;5.00;79.20;;;;;;4975497;28;20093;-84
2020/12/19 05:14:14;;;;;;;8.23;6.55;;;5.00;79.10;;;;;;4997525;28;20042;-84
2020/12/19 05:16:40;;;;;;;7.68;5.55;;;5.10;79.20;;;;;;4994313;28;20039;-85
2020/12/19 05:19:10;;;;;;;8.60;6.38;;;5.00;79.00;;;;;;4979035;28;20042;-84
2020/12/19 05:21:44;;;;;;;8.02;5.97;;;5.00;79.00;;;;;;4996403;28;20042;-84
2020/12/19 05:24:26;;;;;;;9.52;6.85;;;5.10;79.20;;;;;;4978745;28;20030;-83
2020/12/19 05:26:52;;;;;;;7.70;6.20;;;5.10;79.00;;;;;;4962808;28;20042;-83
2020/12/19 05:29:19;;;;;;;9.35;7.15;;;5.10;79.00;;;;;;4996098;28;20068;-82
2020/12/19 05:31:53;;;;;;;10.05;6.97;;;5.10;78.90;;;;;;4995938;28;20409;-82
2020/12/19 05:34:19;;;;;;;9.48;6.28;;;5.10;78.90;;;;;;4996528;28;20054;-82
2020/12/19 05:36:46;;;;;;;7.93;5.95;;;5.10;78.80;;;;;;4996100;28;20124;-83
2020/12/19 05:39:12;;;;;;;8.70;6.57;;;5.00;78.90;;;;;;4995946;28;20042;-84
2020/12/19 05:41:39;;;;;;;8.77;6.90;;;5.00;79.00;;;;;;4995436;28;20032;-84
2020/12/19 05:44:05;;;;;;;7.97;6.53;;;5.10;78.90;;;;;;4996136;28;20038;-83
2020/12/19 05:46:37;;;;;;;8.13;6.55;;;5.10;78.90;;;;;;4995997;28;20549;-83
2020/12/19 05:49:05;;;;;;;9.45;7.15;;;5.00;78.90;;;;;;4995804;28;20409;-84
2020/12/19 05:51:33;;;;;;;10.05;6.32;;;5.10;79.00;;;;;;4995607;28;20502;-83
2020/12/19 05:54:11;;;;;;;7.65;6.07;;;5.00;79.00;;;;;;4995983;28;20032;-83
2020/12/19 05:56:45;;;;;;;9.30;6.47;;;5.00;78.90;;;;;;4995697;28;20062;-84
2020/12/19 05:59:15;;;;;;;8.68;6.85;;;5.10;79.00;;;;;;4978182;28;20509;-85
2020/12/19 06:01:44;;;;;;;8.55;7.13;;;5.00;78.90;;;;;;4995762;28;20042;-86
2020/12/19 06:04:13;;;;;;;10.02;7.57;;;5.00;78.90;;;;;;4978536;28;20026;-84
2020/12/19 06:06:45;;;;;;;8.52;7.32;;;5.00;78.90;;;;;;4995085;28;20061;-84
2020/12/19 06:09:12;;;;;;;8.95;6.82;;;5.00;78.90;;;;;;4978069;28;20042;-83
2020/12/19 06:11:52;;;;;;;10.30;8.05;;;5.00;78.70;;;;;;4995466;28;20033;-81
2020/12/19 06:14:21;;;;;;;11.30;6.85;;;5.00;78.90;;;;;;4978234;28;20034;-80
2020/12/19 06:16:49;;;;;;;9.65;7.38;;;5.00;78.90;;;;;;4995103;28;20031;-83
2020/12/19 06:19:20;;;;;;;9.35;6.88;;;5.00;78.90;;;;;;4977476;28;20038;-84
2020/12/19 06:21:51;;;;;;;10.73;7.13;;;5.00;78.80;;;;;;4995096;28;20190;-88
2020/12/19 06:24:49;;;;;;;9.93;7.38;;;5.00;78.80;;;;;;4977819;28;20045;-84
2020/12/19 06:27:18;;;;;;;9.77;6.78;;;5.00;78.80;;;;;;4927294;28;20046;-87
2020/12/19 06:29:44;;;;;;;8.82;6.70;;;4.90;78.80;;;;;;4983713;28;20553;-87
2020/12/19 06:32:26;;;;;;;9.02;6.93;;;4.90;78.80;;;;;;4995272;28;20042;-88
2020/12/19 06:35:09;;;;;;;8.15;7.30;;;5.00;78.70;;;;;;4962295;28;20478;-91
2020/12/19 06:37:38;;;;;;;8.15;6.53;;;5.00;78.60;;;;;;4994896;28;20046;-82
2020/12/19 06:40:18;;;;;;;9.35;6.82;;;4.90;78.70;;;;;;4977092;28;20449;-83
2020/12/19 06:42:46;;;;;;;9.10;6.20;;;4.90;78.60;;;;;;4977465;28;20038;-83
2020/12/19 06:45:23;;;;;;;9.02;6.88;;;4.90;78.60;;;;;;4995074;28;20034;-81
2020/12/19 06:47:50;;;;;;;10.38;6.95;;;4.90;78.80;;;;;;4994833;28;20109;-82
2020/12/19 06:50:16;;;;;;;9.80;6.57;;;4.80;78.70;;;;;;4994683;28;20113;-84
2020/12/19 06:52:53;;;;;;;8.85;6.47;;;4.90;78.80;;;;;;4976868;28;20034;-83
2020/12/19 06:55:21;;;;;;;8.40;6.68;;;4.90;78.60;;;;;;4977244;28;20038;-82
2020/12/19 06:57:55;;;;;;;8.05;6.05;;;4.90;78.50;;;;;;4994458;28;20121;-84
2020/12/19 07:00:25;;;;;;;7.28;5.90;;;5.00;78.50;;;;;;4994828;28;20069;-83
2020/12/19 07:02:55;;;;;;;6.00;5.40;;;4.90;78.30;;;;;;4994957;28;20046;-83
2020/12/19 07:05:26;;;;;;;7.60;6.13;;;5.00;78.30;;;;;;4994889;28;20038;-81
2020/12/19 07:07:53;;;;;;;8.07;5.90;;;4.90;78.30;;;;;;4995274;28;20509;-81
2020/12/19 07:10:33;;;;;;;7.38;6.38;;;5.00;78.40;;;;;;4960612;28;20034;-82
2020/12/19 07:12:59;;;;;;;8.20;6.30;;;5.00;78.20;;;;;;4976437;28;20038;-83
2020/12/19 07:15:52;;;;;;;7.70;6.22;;;5.00;78.10;;;;;;4976700;28;20482;-82
2020/12/19 07:18:34;;;;;;;7.05;5.90;;;5.00;78.00;;;;;;4990203;28;20034;-83
2020/12/19 07:21:10;;;;;;;6.80;5.70;;;5.00;78.10;;;;;;4976922;28;20085;-84
2020/12/19 07:23:38;;;;;;;8.15;5.45;;;5.00;78.00;;;;;;4993316;28;20057;-83
2020/12/19 07:26:06;;;;;;;10.05;5.72;;;5.00;78.00;;;;;;4976628;28;20038;-83
2020/12/19 07:28:32;;;;;;;8.23;5.95;;;5.00;77.90;;;;;;4993200;28;20042;-80
2020/12/19 07:30:58;;;;;;;7.18;6.28;;;5.00;78.00;;;;;;4992500;28;20370;-87
2020/12/19 07:33:25;;;;;;;9.55;7.22;;;4.90;77.70;;;;;;4992676;28;20049;-84
2020/12/19 07:35:51;;;;;;;8.75;6.70;;;4.80;77.80;;;;;;4993416;28;20045;-82
2020/12/19 07:38:20;;;;;;;10.57;6.95;;;4.70;77.80;;;;;;4993591;28;20038;-83
2020/12/19 07:40:56;;;;;;;10.23;6.55;;;4.70;77.80;;;;;;4993410;28;20139;-81
2020/12/19 07:43:23;;;;;;;9.57;6.95;;;4.60;78.00;;;;;;4967507;28;20038;-85
2020/12/19 07:45:56;;;;;;;7.90;6.32;;;4.60;77.80;;;;;;4976264;28;20518;-86
2020/12/19 07:48:22;;;;;;;9.27;6.20;;;4.50;78.10;;;;;;4993422;28;20042;-86
2020/12/19 07:50:48;;;;;;;7.22;6.30;;;4.50;78.00;;;;;;4975963;28;20034;-86
2020/12/19 07:53:14;;;;;;;8.85;6.43;;;4.40;78.10;;;;;;4975955;28;20033;-84
2020/12/19 07:55:49;;;;;;;8.60;6.68;;;4.40;78.10;;;;;;4993564;28;20121;-85
2020/12/19 07:58:18;;;;;;;8.02;6.05;;;4.40;77.90;;;;;;4993704;28;20030;-86
2020/12/19 08:00:44;;;;;;;10.93;6.95;;;4.40;77.90;;;;;;4976702;28;20046;-85
2020/12/19 08:03:10;;;;;;;9.10;6.45;;;4.40;78.10;;;;;;4993301;28;20148;-86
2020/12/19 08:05:36;;;;;;;9.13;6.40;;;4.30;78.00;;;;;;4976000;28;20038;-87
2020/12/19 08:08:02;;;;;;;9.57;6.95;;;4.20;78.30;;;;;;4993624;28;20135;-84
2020/12/19 08:10:28;;;;;;;10.45;6.45;;;4.20;78.30;;;;;;4977783;28;20038;-84
2020/12/19 08:12:54;;;;;;;8.70;7.07;;;4.20;78.30;;;;;;4994280;28;20030;-82
2020/12/19 08:15:27;;;;;;;15.27;8.85;;;4.20;78.30;;;;;;4996508;28;20556;-83
2020/12/19 08:17:57;;;;;;;12.40;8.43;;;4.30;81.30;;;;;;4997017;28;20042;-86
2020/12/19 08:20:28;;;;;;;9.82;7.20;;;4.40;82.60;;;;;;4994798;28;20038;-88
2020/12/19 08:22:56;;;;;;;11.52;7.18;;;4.30;82.30;;;;;;4979606;28;20041;-90
2020/12/19 08:25:22;;;;;;;13.57;6.65;;;4.20;81.40;;;;;;4978748;28;20490;-90
2020/12/19 08:27:49;;;;;;;9.70;6.43;;;4.30;80.60;;;;;;4995537;28;20129;-88
2020/12/19 08:30:27;;;;;;;10.48;6.93;;;4.20;80.40;;;;;;4981679;28;20190;-84
2020/12/19 08:33:02;;;;;;;9.48;6.82;;;4.20;79.80;;;;;;5003100;28;20073;-91
2020/12/19 08:35:36;;;;;;;9.48;6.95;;;4.20;79.20;;;;;;4985421;28;20038;-82
2020/12/19 08:38:26;;;;;;;8.57;6.72;;;4.20;78.90;;;;;;5005807;28;20031;-89
2020/12/19 08:41:03;;;;;;;9.00;6.68;;;4.30;78.60;;;;;;5006955;28;20073;-89
2020/12/19 08:43:39;;;;;;;8.65;6.20;;;4.30;78.50;;;;;;4980887;28;20066;-88
2020/12/19 08:46:14;;;;;;;7.82;6.45;;;4.40;78.40;;;;;;4979473;28;20042;-85
2020/12/19 08:48:43;;;;;;;8.15;6.53;;;4.40;78.30;;;;;;4976173;28;20030;-85
2020/12/19 08:51:11;;;;;;;8.98;6.30;;;4.50;78.30;;;;;;4976788;28;20178;-87
2020/12/19 08:53:37;;;;;;;7.65;6.15;;;4.60;78.20;;;;;;4963623;28;20030;-88
2020/12/19 08:56:17;;;;;;;11.02;6.45;;;4.50;78.10;;;;;;4983798;28;20038;-86
2020/12/19 08:58:55;;;;;;;9.30;7.03;;;4.60;78.60;;;;;;5005647;28;20073;-86
2020/12/19 09:01:21;;;;;;;8.82;6.63;;;4.60;78.50;;;;;;4997596;28;20391;-87
2020/12/19 09:03:47;;;;;;;8.52;6.95;;;4.60;77.90;;;;;;4997388;28;20144;-87
2020/12/19 09:06:16;;;;;;;8.20;6.40;;;4.70;77.90;;;;;;4980310;28;20166;-87
2020/12/19 09:08:47;;;;;;;8.57;6.57;;;4.70;77.60;;;;;;4980665;28;20048;-89
2020/12/19 09:11:24;;;;;;;8.40;6.30;;;4.70;77.60;;;;;;4963990;28;20046;-86
2020/12/19 09:14:07;;;;;;;10.35;6.63;;;4.70;77.50;;;;;;4980761;28;20037;-88
2020/12/19 09:16:33;;;;;;;10.30;6.70;;;4.70;77.40;;;;;;4979610;28;20072;-84
2020/12/19 09:19:03;;;;;;;8.80;6.50;;;4.80;77.50;;;;;;4996100;28;20046;-84
2020/12/19 09:21:28;;;;;;;7.75;6.32;;;4.70;77.20;;;;;;4980644;28;20081;-89
2020/12/19 09:23:54;;;;;;;10.15;7.43;;;4.70;77.30;;;;;;5000666;28;20030;-90
2020/12/19 09:26:20;;;;;;;8.52;6.47;;;4.70;77.20;;;;;;5002552;28;20038;-90
2020/12/19 09:28:46;;;;;;;8.38;6.47;;;4.80;76.90;;;;;;5002002;28;20560;-88
2020/12/19 09:31:12;;;;;;;9.15;7.57;;;4.90;77.00;;;;;;5000817;28;20070;-89
2020/12/19 09:33:38;;;;;;;8.98;6.43;;;4.80;76.70;;;;;;4995794;28;20061;-88
2020/12/19 09:36:04;;;;;;;9.68;6.35;;;4.90;76.90;;;;;;5001524;28;20034;-91
2020/12/19 09:38:30;;;;;;;10.20;6.50;;;4.90;76.70;;;;;;4983603;28;20055;-90
2020/12/19 09:40:56;;;;;;;10.68;7.43;;;4.80;76.70;;;;;;5002324;28;20046;-93
2020/12/19 09:43:22;;;;;;;10.13;7.35;;;4.80;76.60;;;;;;4989623;28;20025;-94
2020/12/19 09:45:47;;;;;;;10.07;7.55;;;4.90;76.80;;;;;;4971017;28;20402;-89
2020/12/19 09:48:13;;;;;;;10.52;7.07;;;4.90;76.60;;;;;;4999866;28;20034;-88
2020/12/19 09:50:39;;;;;;;9.73;7.20;;;4.90;76.70;;;;;;4989012;28;20109;-91
2020/12/19 09:53:06;;;;;;;11.38;7.90;;;4.90;77.00;;;;;;4987971;28;20489;-92
2020/12/19 09:55:32;;;;;;;9.02;7.20;;;4.90;76.60;;;;;;5004758;28;20062;-94
2020/12/19 09:57:58;;;;;;;10.35;7.13;;;4.80;76.40;;;;;;5003568;28;20042;-90
2020/12/19 10:00:24;;;;;;;11.07;7.03;;;4.90;76.40;;;;;;5003478;28;20042;-92
2020/12/19 10:02:53;;;;;;;12.52;7.43;;;4.90;76.40;;;;;;4996427;28;20446;-86
2020/12/19 10:05:21;;;;;;;8.45;6.50;;;4.90;76.20;;;;;;4978997;28;20034;-86
2020/12/19 10:07:47;;;;;;;9.45;6.90;;;4.90;76.30;;;;;;4978413;28;20133;-85
2020/12/19 10:10:13;;;;;;;10.88;7.40;;;4.90;76.20;;;;;;4978771;28;20069;-88
2020/12/19 10:12:39;;;;;;;13.13;8.07;;;4.90;76.20;;;;;;4985065;28;20034;-86
2020/12/19 10:15:07;;;;;;;13.23;8.13;;;4.90;76.20;;;;;;4979230;28;20034;-85
2020/12/19 10:17:33;;;;;;;9.77;7.25;;;4.90;76.20;;;;;;4962090;28;20029;-84
2020/12/19 10:19:59;;;;;;;11.02;7.80;;;4.90;76.10;;;;;;4979568;28;20133;-85
2020/12/19 10:22:25;;;;;;;10.65;7.28;;;4.90;76.00;;;;;;4978799;28;20148;-84
2020/12/19 10:24:51;;;;;;;11.35;7.68;;;4.90;75.90;;;;;;4995135;28;20038;-84
2020/12/19 10:27:17;;;;;;;11.65;8.15;;;4.90;75.90;;;;;;4981283;28;20034;-85
2020/12/19 10:29:43;;;;;;;10.88;7.70;;;5.00;75.90;;;;;;4961960;28;20034;-83
2020/12/19 10:32:12;;;;;;;10.63;7.53;;;4.90;75.90;;;;;;4977559;28;20056;-82
2020/12/19 10:34:38;;;;;;;10.98;7.72;;;4.90;76.00;;;;;;4962515;28;20144;-85
2020/12/19 10:37:04;;;;;;;10.80;7.00;;;5.00;75.80;;;;;;4977538;28;20498;-85
2020/12/19 10:39:31;;;;;;;9.88;7.40;;;5.00;75.90;;;;;;4994956;28;20039;-84
2020/12/19 10:41:58;;;;;;;9.95;7.45;;;5.00;75.90;;;;;;4994871;28;20074;-84
2020/12/19 10:44:24;;;;;;;10.05;7.55;;;5.00;75.80;;;;;;4995035;28;20560;-84
2020/12/19 10:46:50;;;;;;;10.40;6.97;;;5.00;75.90;;;;;;4960609;28;20046;-84
2020/12/19 10:49:17;;;;;;;10.30;7.35;;;5.00;75.70;;;;;;4961383;28;20474;-85
2020/12/19 10:51:43;;;;;;;11.35;7.45;;;5.00;75.80;;;;;;4961420;28;20049;-85
2020/12/19 10:54:10;;;;;;;9.45;7.38;;;5.00;75.70;;;;;;4977717;28;20038;-85
2020/12/19 10:56:38;;;;;;;10.02;7.97;;;5.00;75.80;;;;;;4977897;28;20097;-85
2020/12/19 10:59:05;;;;;;;10.82;7.75;;;5.00;75.70;;;;;;4977634;28;20438;-85
2020/12/19 11:01:31;;;;;;;12.70;7.88;;;5.00;75.60;;;;;;4976955;28;20031;-86
2020/12/19 11:03:58;;;;;;;10.35;8.43;;;5.00;75.70;;;;;;4977277;28;20046;-87
2020/12/19 11:06:29;;;;;;;12.05;8.05;;;5.00;75.50;;;;;;4977331;28;20486;-85
2020/12/19 11:08:56;;;;;;;10.18;7.72;;;5.00;75.40;;;;;;4994364;28;20041;-85
2020/12/19 11:11:23;;;;;;;11.48;7.93;;;5.00;75.50;;;;;;4976749;28;20065;-86
2020/12/19 11:13:50;;;;;;;10.98;7.20;;;5.00;75.60;;;;;;4976560;28;20027;-85
2020/12/19 11:16:26;;;;;;;12.05;7.15;;;5.00;75.60;;;;;;4966073;28;20038;-86
2020/12/19 11:18:53;;;;;;;11.13;8.43;;;5.00;75.40;;;;;;4967505;28;20039;-87
2020/12/19 11:21:19;;;;;;;11.40;7.68;;;5.00;75.40;;;;;;4954969;28;20091;-91
2020/12/19 11:23:52;;;;;;;11.48;7.68;;;5.00;75.50;;;;;;4969512;28;20132;-86
2020/12/19 11:26:22;;;;;;;11.80;7.40;;;5.00;75.70;;;;;;4998637;28;20042;-89
2020/12/19 11:28:52;;;;;;;9.25;7.18;;;5.00;75.60;;;;;;4979347;28;20624;-91
2020/12/19 11:31:28;;;;;;;10.65;7.72;;;5.00;75.60;;;;;;4962335;28;20037;-91
2020/12/19 11:33:55;;;;;;;12.32;8.02;;;4.90;75.60;;;;;;4975312;28;20108;-82
2020/12/19 11:36:21;;;;;;;11.00;7.43;;;4.90;75.50;;;;;;4976139;28;20045;-89
2020/12/19 11:38:47;;;;;;;11.45;7.32;;;4.90;75.80;;;;;;4942423;28;20031;-85
2020/12/19 11:41:20;;;;;;;10.75;7.60;;;4.90;75.30;;;;;;4985994;28;20045;-88
2020/12/19 11:43:46;;;;;;;11.20;7.50;;;5.00;75.80;;;;;;4968226;28;20386;-89
2020/12/19 11:46:16;;;;;;;12.68;9.18;;;5.10;79.70;;;;;;4992817;28;20061;-90
2020/12/19 11:48:42;;;;;;;11.25;8.13;;;5.00;81.30;;;;;;4981838;28;20457;-90
2020/12/19 11:51:11;;;;;;;10.95;8.30;;;4.90;80.20;;;;;;4971578;28;20098;-89
2020/12/19 11:53:37;;;;;;;12.13;8.07;;;4.80;79.30;;;;;;4964880;28;20034;-88
2020/12/19 11:56:04;;;;;;;10.95;8.18;;;4.70;78.60;;;;;;4967789;28;20525;-82
2020/12/19 11:58:30;;;;;;;13.27;8.90;;;4.70;77.70;;;;;;4965005;28;20520;-80
2020/12/19 12:00:56;;;;;;;12.20;7.70;;;4.70;77.20;;;;;;4963971;28;20366;-83
2020/12/19 12:03:22;;;;;;;11.68;8.85;;;4.60;76.90;;;;;;4979401;28;20043;-83
2020/12/19 12:05:48;;;;;;;10.68;8.48;;;4.50;76.80;;;;;;4984067;28;20038;-85
2020/12/19 12:08:14;;;;;;;13.75;8.73;;;4.40;76.70;;;;;;4992171;28;20422;-88
2020/12/19 12:10:41;;;;;;;13.68;7.80;;;4.40;76.70;;;;;;4968439;28;20413;-85
2020/12/19 12:13:10;;;;;;;13.77;8.25;;;4.40;76.50;;;;;;4994188;28;20018;-92
2020/12/19 12:15:42;;;;;;;10.68;7.38;;;4.50;76.60;;;;;;4984336;28;20035;-91
2020/12/19 12:18:09;;;;;;;13.10;8.10;;;4.50;76.50;;;;;;4967497;28;20079;-92
2020/12/19 12:20:38;;;;;;;13.32;8.05;;;4.50;76.40;;;;;;4987014;28;20442;-88
2020/12/19 12:23:05;;;;;;;10.50;7.78;;;4.50;76.30;;;;;;4964336;28;20057;-86
2020/12/19 12:25:32;;;;;;;10.85;7.50;;;4.50;76.40;;;;;;4987536;28;20030;-88
2020/12/19 12:27:58;;;;;;;12.13;7.60;;;4.60;76.40;;;;;;4986864;28;20054;-84
2020/12/19 12:30:24;;;;;;;10.20;7.03;;;4.50;76.20;;;;;;4970461;28;20119;-90
2020/12/19 12:32:50;;;;;;;12.15;7.93;;;4.50;76.30;;;;;;4988422;28;20054;-92
2020/12/19 12:35:16;;;;;;;11.48;7.97;;;4.60;76.40;;;;;;4990787;28;20066;-91
2020/12/19 12:37:42;;;;;;;10.90;7.55;;;4.50;76.30;;;;;;4986934;28;20039;-89
2020/12/19 12:40:08;;;;;;;11.70;8.48;;;4.50;76.50;;;;;;4978000;28;20046;-89
2020/12/19 12:42:34;;;;;;;13.48;8.45;;;4.50;76.40;;;;;;4995976;28;20034;-92
2020/12/19 12:45:00;;;;;;;9.82;7.57;;;4.60;76.60;;;;;;4987458;28;20098;-84
2020/12/19 12:47:26;;;;;;;11.30;8.38;;;4.60;76.60;;;;;;4958997;28;20039;-91
2020/12/19 12:49:52;;;;;;;10.35;7.15;;;4.50;76.50;;;;;;5043847;23;20332;-89
2020/12/19 12:52:18;;;;;;;11.65;8.20;;;4.50;76.70;;;;;;5032168;28;20046;-87
2020/12/19 12:54:46;;;;;;;10.10;7.28;;;4.50;76.70;;;;;;5024808;28;20038;-92
2020/12/19 12:57:13;;;;;;;13.65;8.10;;;4.60;77.70;;;;;;5011325;28;20038;-88
2020/12/19 12:59:42;;;;;;;13.23;8.30;;;4.60;77.80;;;;;;5014159;28;20128;-91